Time;durP1;ratioP1;P1;durP2;ratioP2;P2;SDS_P1;SDS_P2;PMS_P1;PMS_P2;Temp;Humidity;BMP_temperature;BMP_pressure;BME280_temperature;BME280_humidity;BME280_pressure;Samples;Min_cycle;Max_cycle;Signal;HPM_P1;HPM_P2
2022/12/31 00:01:49;;;;;;;17.17;6.50;;;10.90;99.90;;;;;;5053562;28;20037;-62
2022/12/31 00:04:16;;;;;;;16.13;5.13;;;10.90;99.90;;;;;;5054248;28;20089;-62
2022/12/31 00:06:42;;;;;;;22.17;5.95;;;10.90;99.90;;;;;;5072265;28;20052;-62
2022/12/31 00:09:08;;;;;;;17.77;4.90;;;10.90;99.90;;;;;;5053600;28;20025;-62
2022/12/31 00:11:35;;;;;;;16.48;3.80;;;11.00;99.90;;;;;;5072495;28;20048;-62
2022/12/31 00:14:01;;;;;;;18.17;4.72;;;11.00;99.90;;;;;;5054327;28;20079;-63
2022/12/31 00:16:30;;;;;;;14.05;4.30;;;11.00;99.90;;;;;;5053787;28;20080;-62
2022/12/31 00:18:59;;;;;;;23.30;4.75;;;11.00;99.90;;;;;;5071972;28;20036;-62
2022/12/31 00:21:29;;;;;;;17.95;4.65;;;10.90;99.90;;;;;;5071883;28;20079;-62
2022/12/31 00:23:56;;;;;;;12.18;4.57;;;10.90;99.90;;;;;;5054151;28;20458;-62
2022/12/31 00:26:24;;;;;;;20.55;5.25;;;10.90;99.90;;;;;;5053963;28;20059;-62
2022/12/31 00:28:51;;;;;;;17.73;4.60;;;10.90;99.90;;;;;;5053461;28;20144;-62
2022/12/31 00:31:23;;;;;;;16.42;4.60;;;10.90;99.90;;;;;;5071938;28;20055;-61
2022/12/31 00:33:49;;;;;;;22.33;4.50;;;10.90;99.90;;;;;;5071750;28;20504;-62
2022/12/31 00:36:18;;;;;;;16.10;4.30;;;10.90;99.90;;;;;;5053061;28;20055;-62
2022/12/31 00:38:46;;;;;;;13.68;4.65;;;10.90;99.90;;;;;;5072071;28;20455;-62
2022/12/31 00:41:13;;;;;;;13.40;4.80;;;10.90;99.90;;;;;;5053788;28;20170;-62
2022/12/31 00:43:39;;;;;;;19.60;4.82;;;10.90;99.90;;;;;;5053611;28;20153;-62
2022/12/31 00:46:06;;;;;;;18.27;5.32;;;11.00;99.90;;;;;;5075637;28;20136;-62
2022/12/31 00:48:33;;;;;;;15.52;4.85;;;11.00;99.90;;;;;;5043857;28;20044;-62
2022/12/31 00:51:00;;;;;;;27.70;6.82;;;11.00;99.90;;;;;;5077393;28;20090;-62
2022/12/31 00:53:26;;;;;;;24.48;5.18;;;11.00;99.90;;;;;;5043744;28;20129;-62
2022/12/31 00:55:59;;;;;;;15.07;5.15;;;11.00;99.90;;;;;;5060797;28;20564;-62
2022/12/31 00:58:25;;;;;;;20.48;5.97;;;11.00;99.90;;;;;;5059541;28;20044;-62
2022/12/31 01:00:51;;;;;;;27.45;7.32;;;11.00;99.90;;;;;;5060208;28;20063;-62
2022/12/31 01:03:17;;;;;;;21.85;5.43;;;11.00;99.90;;;;;;5078166;28;20473;-62
2022/12/31 01:05:42;;;;;;;25.60;7.05;;;11.10;99.90;;;;;;5059491;28;20059;-62
2022/12/31 01:08:08;;;;;;;30.80;5.68;;;11.10;99.90;;;;;;5078399;28;20051;-62
2022/12/31 01:13:18;;;;;;;19.77;5.15;;;11.10;99.90;;;;;;5078299;28;20044;-62
2022/12/31 01:15:43;;;;;;;18.40;6.43;;;11.00;99.90;;;;;;5060135;28;20397;-62
2022/12/31 01:18:09;;;;;;;21.38;5.20;;;11.00;99.90;;;;;;5059341;28;20044;-62
2022/12/31 01:20:40;;;;;;;20.92;5.55;;;11.00;99.90;;;;;;5060452;28;20041;-62
2022/12/31 01:23:07;;;;;;;18.42;5.07;;;11.00;99.90;;;;;;5060679;28;20041;-62
2022/12/31 01:25:40;;;;;;;20.73;5.45;;;11.00;99.90;;;;;;5077493;28;20098;-62
2022/12/31 01:28:07;;;;;;;14.10;4.50;;;11.00;99.90;;;;;;5059924;28;20037;-62
2022/12/31 01:30:33;;;;;;;19.65;5.18;;;10.90;99.90;;;;;;5060230;28;20123;-62
2022/12/31 01:32:58;;;;;;;16.20;4.80;;;10.90;99.90;;;;;;5059261;28;20123;-62
2022/12/31 01:35:24;;;;;;;17.80;5.22;;;10.90;99.90;;;;;;5078170;28;20067;-62
2022/12/31 01:37:50;;;;;;;20.48;5.22;;;10.90;99.90;;;;;;5060048;28;20052;-62
2022/12/31 01:40:16;;;;;;;20.02;4.50;;;10.90;99.90;;;;;;5059328;28;20048;-62
2022/12/31 01:42:42;;;;;;;26.10;6.03;;;10.90;99.90;;;;;;5077947;28;20076;-62
2022/12/31 01:45:13;;;;;;;17.52;3.80;;;10.90;99.90;;;;;;5059948;28;20072;-62
2022/12/31 01:47:47;;;;;;;19.17;3.97;;;10.80;99.90;;;;;;5077556;28;20032;-62
2022/12/31 01:50:24;;;;;;;21.65;5.22;;;10.90;99.90;;;;;;5060066;28;20056;-62
2022/12/31 01:52:55;;;;;;;19.50;4.75;;;10.80;99.90;;;;;;5060142;28;20493;-62
2022/12/31 01:55:30;;;;;;;22.13;4.45;;;10.80;99.90;;;;;;5059812;28;20055;-62
2022/12/31 01:58:03;;;;;;;;;;;10.80;99.90;;;;;;5056720;28;20044;-62
2022/12/31 02:00:29;;;;;;;16.58;4.78;;;10.80;99.90;;;;;;5073854;28;19947;-62
2022/12/31 02:02:54;;;;;;;20.23;4.63;;;10.80;99.90;;;;;;5057029;28;20485;-62
2022/12/31 02:05:30;;;;;;;23.48;5.88;;;10.80;99.90;;;;;;5074401;28;20402;-62
2022/12/31 02:07:57;;;;;;;24.33;4.95;;;10.70;99.90;;;;;;5055847;28;20036;-62
2022/12/31 02:10:23;;;;;;;16.65;4.40;;;10.80;99.90;;;;;;5056784;28;20123;-62
2022/12/31 02:12:49;;;;;;;14.80;5.28;;;10.70;99.90;;;;;;5074156;28;20128;-62
2022/12/31 02:15:15;;;;;;;13.02;4.28;;;10.70;99.90;;;;;;5055408;28;20116;-62
2022/12/31 02:17:52;;;;;;;20.25;5.47;;;10.70;99.90;;;;;;5056990;28;20079;-62
2022/12/31 02:20:36;;;;;;;19.75;6.18;;;10.70;99.90;;;;;;5074216;28;20036;-62
2022/12/31 02:23:07;;;;;;;20.02;5.90;;;10.70;99.90;;;;;;5055647;28;20048;-62
2022/12/31 02:26:10;;;;;;;17.15;5.93;;;10.70;99.90;;;;;;5056283;28;20044;-62
2022/12/31 02:29:09;;;;;;;18.48;5.25;;;10.70;99.90;;;;;;5073478;28;20051;-62
2022/12/31 02:31:54;;;;;;;14.43;4.88;;;10.60;99.90;;;;;;5074281;28;20048;-62
2022/12/31 02:34:25;;;;;;;17.95;4.60;;;10.60;99.90;;;;;;5073961;28;20402;-62
2022/12/31 02:36:53;;;;;;;14.10;5.68;;;10.60;99.90;;;;;;5055274;28;20048;-62
2022/12/31 02:39:19;;;;;;;15.48;5.43;;;10.60;99.90;;;;;;5073663;28;20135;-62
2022/12/31 02:41:49;;;;;;;15.07;5.70;;;10.50;99.90;;;;;;5073944;28;20161;-62
2022/12/31 02:44:28;;;;;;;14.65;6.38;;;10.50;99.90;;;;;;5072984;28;20040;-62
2022/12/31 02:47:22;;;;;;;12.88;5.65;;;10.50;99.90;;;;;;5073820;28;20040;-62
2022/12/31 02:50:20;;;;;;;13.13;5.50;;;10.50;99.90;;;;;;5051882;28;20051;-62
2022/12/31 02:52:52;;;;;;;16.85;4.93;;;10.50;99.90;;;;;;5002031;28;20516;-62
2022/12/31 02:55:40;;;;;;;17.25;5.30;;;10.50;99.90;;;;;;5055674;28;20044;-62
2022/12/31 03:04:34;;;;;;;18.25;5.25;;;10.40;99.90;;;;;;5054635;28;20379;-62
2022/12/31 03:07:06;;;;;;;14.73;4.85;;;10.40;99.90;;;;;;5073568;28;20045;-62
2022/12/31 03:09:32;;;;;;;18.48;5.05;;;10.40;99.90;;;;;;5073330;28;20109;-62
2022/12/31 03:14:43;;;;;;;17.55;4.45;;;10.30;99.90;;;;;;5055270;28;20132;-62
2022/12/31 03:17:09;;;;;;;18.40;4.28;;;10.30;99.90;;;;;;5055106;28;20123;-62
2022/12/31 03:22:27;;;;;;;10.82;4.32;;;10.30;99.90;;;;;;5073124;28;20040;-62
2022/12/31 03:27:38;;;;;;;13.98;3.90;;;10.20;99.90;;;;;;5055407;28;20390;-62
2022/12/31 03:30:05;;;;;;;19.77;4.28;;;10.20;99.90;;;;;;5054810;28;20044;-62
2022/12/31 03:32:30;;;;;;;12.18;3.65;;;10.20;99.90;;;;;;5072423;28;20396;-62
2022/12/31 03:34:56;;;;;;;12.25;4.93;;;10.20;99.90;;;;;;5072878;28;20120;-62
2022/12/31 03:37:22;;;;;;;12.48;3.83;;;10.10;99.90;;;;;;5072805;28;20083;-62
2022/12/31 03:39:47;;;;;;;11.98;3.50;;;10.10;99.90;;;;;;5071672;28;20401;-61
2022/12/31 03:42:13;;;;;;;8.75;3.20;;;10.10;99.90;;;;;;5072515;28;20036;-62
2022/12/31 03:44:39;;;;;;;9.75;4.28;;;10.10;99.90;;;;;;5038855;28;20047;-62
2022/12/31 03:47:04;;;;;;;9.90;3.38;;;10.10;99.90;;;;;;5071886;28;20516;-62
2022/12/31 03:49:30;;;;;;;12.20;3.50;;;10.10;99.90;;;;;;5054728;28;20500;-62
2022/12/31 03:51:55;;;;;;;13.88;4.15;;;10.00;99.90;;;;;;5072445;28;20054;-62
2022/12/31 03:54:21;;;;;;;11.77;3.50;;;10.10;99.90;;;;;;5071636;28;20045;-62
2022/12/31 03:56:47;;;;;;;12.85;3.30;;;10.00;99.90;;;;;;5054453;28;20044;-61
2022/12/31 03:59:12;;;;;;;12.55;3.15;;;10.00;99.90;;;;;;5072400;28;20044;-62
2022/12/31 04:01:38;;;;;;;12.05;3.05;;;9.90;99.90;;;;;;5037243;28;20044;-62
2022/12/31 04:04:04;;;;;;;9.68;3.45;;;10.00;99.90;;;;;;5054176;28;20036;-62
2022/12/31 04:06:29;;;;;;;12.85;3.72;;;10.00;99.90;;;;;;5054238;28;20136;-61
2022/12/31 04:08:55;;;;;;;10.93;3.08;;;10.00;99.90;;;;;;5053736;28;20071;-62
2022/12/31 04:11:20;;;;;;;11.50;4.10;;;10.00;99.90;;;;;;5054139;28;20062;-62
2022/12/31 04:13:46;;;;;;;9.30;3.42;;;10.00;99.90;;;;;;5053481;28;20036;-62
2022/12/31 04:16:12;;;;;;;9.98;3.20;;;9.90;99.90;;;;;;5072330;28;20051;-62
2022/12/31 04:18:37;;;;;;;10.70;3.10;;;10.00;99.90;;;;;;5054492;28;20048;-62
2022/12/31 04:21:04;;;;;;;8.88;2.33;;;9.90;99.90;;;;;;5052734;28;20127;-62
2022/12/31 04:23:30;;;;;;;16.50;4.43;;;10.00;99.90;;;;;;5037703;28;20127;-62
2022/12/31 04:25:56;;;;;;;11.80;4.47;;;10.00;99.90;;;;;;5072085;28;20115;-62
2022/12/31 04:28:22;;;;;;;14.02;4.45;;;10.00;99.90;;;;;;5053163;28;20075;-62
2022/12/31 04:30:47;;;;;;;13.52;4.88;;;10.00;99.90;;;;;;5054198;28;20045;-62
2022/12/31 04:33:13;;;;;;;9.07;3.03;;;10.00;99.90;;;;;;5037407;28;20046;-62
2022/12/31 04:35:39;;;;;;;11.63;2.90;;;9.90;99.90;;;;;;5037052;28;20048;-62
2022/12/31 04:38:04;;;;;;;13.32;2.65;;;10.00;99.90;;;;;;5053687;28;20075;-63
2022/12/31 04:40:30;;;;;;;11.93;3.08;;;10.00;99.90;;;;;;5071800;28;20048;-62
2022/12/31 04:42:55;;;;;;;12.38;2.47;;;9.90;99.90;;;;;;5053185;28;20131;-62
2022/12/31 04:45:21;;;;;;;7.80;2.38;;;9.90;99.90;;;;;;5053920;28;20409;-62
2022/12/31 04:47:47;;;;;;;8.15;2.78;;;9.90;99.90;;;;;;5071882;28;20063;-62
2022/12/31 04:50:12;;;;;;;15.80;2.83;;;9.90;99.90;;;;;;5053038;28;20059;-62
2022/12/31 04:52:38;;;;;;;8.82;3.47;;;10.00;99.90;;;;;;5071910;28;20116;-62
2022/12/31 04:55:04;;;;;;;12.93;3.38;;;9.90;99.90;;;;;;5071511;28;20044;-62
2022/12/31 04:57:30;;;;;;;9.07;3.13;;;9.90;99.90;;;;;;5053508;28;20068;-62
2022/12/31 04:59:55;;;;;;;14.38;4.30;;;9.90;99.90;;;;;;5053962;28;20481;-62
2022/12/31 05:02:21;;;;;;;15.70;3.25;;;9.90;99.90;;;;;;5054079;28;20055;-62
2022/12/31 05:04:47;;;;;;;9.48;3.13;;;9.90;99.90;;;;;;5070622;28;20493;-62
2022/12/31 05:07:12;;;;;;;8.88;2.85;;;9.90;99.90;;;;;;5071378;28;20123;-62
2022/12/31 05:09:38;;;;;;;11.68;3.13;;;9.90;99.90;;;;;;5053721;28;20378;-62
2022/12/31 05:12:04;;;;;;;10.88;3.72;;;9.90;99.90;;;;;;5071047;28;20042;-62
2022/12/31 05:14:33;;;;;;;12.95;4.07;;;9.80;99.90;;;;;;5071947;28;20098;-62
2022/12/31 05:16:59;;;;;;;14.43;4.18;;;9.80;99.90;;;;;;5053171;28;20066;-62
2022/12/31 05:19:25;;;;;;;14.95;4.25;;;9.80;99.90;;;;;;5071385;28;20112;-62
2022/12/31 05:24:35;;;;;;;12.80;3.42;;;9.80;99.90;;;;;;5053337;28;20392;-62
2022/12/31 05:27:01;;;;;;;13.48;3.95;;;9.70;99.90;;;;;;5053529;28;20028;-62
2022/12/31 05:29:26;;;;;;;10.73;3.55;;;9.80;99.90;;;;;;5053926;28;20047;-62
2022/12/31 05:31:52;;;;;;;12.55;4.07;;;9.70;99.90;;;;;;5054262;28;20382;-62
2022/12/31 05:34:18;;;;;;;10.82;4.35;;;9.80;99.90;;;;;;5057373;28;20041;-62
2022/12/31 05:36:43;;;;;;;11.48;4.30;;;9.80;99.90;;;;;;5056882;28;20481;-62
2022/12/31 05:39:09;;;;;;;12.85;5.72;;;9.80;99.90;;;;;;5074320;28;20041;-62
2022/12/31 05:41:35;;;;;;;12.10;5.15;;;9.80;99.90;;;;;;5075283;28;20052;-62
2022/12/31 05:44:00;;;;;;;17.67;6.20;;;9.80;99.90;;;;;;5074975;28;20119;-61
2022/12/31 05:46:26;;;;;;;12.23;5.63;;;9.80;99.90;;;;;;5056153;28;20036;-62
2022/12/31 05:48:52;;;;;;;14.80;6.10;;;9.80;99.90;;;;;;5074766;28;20453;-61
2022/12/31 05:51:17;;;;;;;13.80;5.88;;;9.80;99.90;;;;;;5074851;28;20512;-61
2022/12/31 05:53:43;;;;;;;12.30;5.60;;;9.90;99.90;;;;;;5074003;28;20370;-61
2022/12/31 05:56:08;;;;;;;11.38;4.80;;;9.80;99.90;;;;;;5040208;28;20130;-61
2022/12/31 05:58:34;;;;;;;14.95;5.05;;;9.80;99.90;;;;;;5057376;28;20110;-61
2022/12/31 06:01:00;;;;;;;11.75;4.28;;;9.80;99.90;;;;;;5073794;28;20033;-61
2022/12/31 06:03:25;;;;;;;13.15;3.92;;;9.80;99.90;;;;;;5056370;28;20035;-61
2022/12/31 06:05:51;;;;;;;10.25;4.07;;;9.80;99.90;;;;;;5073555;28;20129;-61
2022/12/31 06:08:17;;;;;;;10.82;4.30;;;9.80;99.90;;;;;;5056154;28;20123;-61
2022/12/31 06:10:42;;;;;;;10.65;4.60;;;9.80;99.90;;;;;;5074596;28;20040;-61
2022/12/31 06:13:09;;;;;;;11.05;5.25;;;9.80;99.90;;;;;;5073913;28;20036;-61
2022/12/31 06:15:38;;;;;;;11.88;5.40;;;9.80;99.90;;;;;;5074686;28;20040;-61
2022/12/31 06:18:05;;;;;;;12.80;6.13;;;9.80;99.90;;;;;;5039791;28;20032;-61
2022/12/31 06:20:30;;;;;;;14.70;5.95;;;9.80;99.90;;;;;;5073701;28;20144;-61
2022/12/31 06:22:56;;;;;;;17.27;6.18;;;9.80;99.90;;;;;;5074415;28;20464;-61
2022/12/31 06:25:22;;;;;;;13.60;6.95;;;9.80;99.90;;;;;;5039733;28;20375;-61
2022/12/31 06:27:47;;;;;;;13.90;5.95;;;9.80;99.90;;;;;;5073408;28;20081;-61
2022/12/31 06:30:13;;;;;;;14.90;6.80;;;9.90;99.90;;;;;;5056112;28;20051;-61
2022/12/31 06:32:39;;;;;;;12.98;5.93;;;9.90;99.90;;;;;;5074285;28;20078;-61
2022/12/31 06:35:06;;;;;;;10.15;6.28;;;9.90;99.90;;;;;;5072856;28;20539;-61
2022/12/31 06:37:31;;;;;;;12.63;7.00;;;10.00;99.90;;;;;;5056195;28;20052;-61
2022/12/31 06:39:57;;;;;;;13.00;6.13;;;9.90;99.90;;;;;;5073905;28;20032;-61
2022/12/31 06:42:23;;;;;;;10.80;6.38;;;10.00;99.90;;;;;;5055358;28;20084;-61
2022/12/31 06:44:49;;;;;;;10.43;6.60;;;9.90;99.90;;;;;;5038697;28;20555;-61
2022/12/31 06:47:14;;;;;;;10.50;6.20;;;10.00;99.90;;;;;;5055777;28;20059;-61
2022/12/31 06:49:40;;;;;;;9.82;5.93;;;9.90;99.90;;;;;;5055154;28;20064;-61
2022/12/31 06:52:06;;;;;;;10.63;6.00;;;10.00;99.90;;;;;;5073582;28;20037;-61
2022/12/31 06:54:31;;;;;;;11.15;5.55;;;9.90;99.90;;;;;;5055946;28;20050;-61
2022/12/31 06:56:57;;;;;;;10.45;6.15;;;9.90;99.90;;;;;;5054985;28;20036;-61
2022/12/31 06:59:26;;;;;;;11.00;5.32;;;9.90;99.90;;;;;;5055707;28;20372;-61
2022/12/31 07:02:12;;;;;;;13.55;6.10;;;9.90;99.90;;;;;;5073448;28;20409;-61
2022/12/31 07:05:02;;;;;;;9.60;5.18;;;9.90;99.90;;;;;;5072223;28;20044;-61
2022/12/31 07:07:41;;;;;;;10.60;5.15;;;9.90;99.90;;;;;;5055473;28;20049;-61
2022/12/31 07:10:29;;;;;;;10.38;5.00;;;9.80;99.90;;;;;;5055107;28;20497;-61
2022/12/31 07:12:57;;;;;;;11.75;6.05;;;9.80;99.90;;;;;;5055363;28;20044;-61
2022/12/31 07:15:42;;;;;;;11.68;6.43;;;9.80;99.90;;;;;;5073273;28;20045;-61
2022/12/31 07:18:10;;;;;;;11.52;7.03;;;9.80;99.90;;;;;;5054531;28;20044;-61
2022/12/31 07:20:37;;;;;;;12.00;7.88;;;9.80;99.90;;;;;;5073271;28;20123;-61
2022/12/31 07:23:02;;;;;;;12.63;7.82;;;9.70;99.90;;;;;;5072899;28;20052;-61
2022/12/31 07:25:28;;;;;;;11.23;6.63;;;9.70;99.90;;;;;;5071689;28;20063;-61
2022/12/31 07:27:57;;;;;;;11.77;6.85;;;9.70;99.90;;;;;;5038377;28;20481;-61
2022/12/31 07:30:38;;;;;;;11.55;7.13;;;9.70;99.90;;;;;;5072631;28;20051;-61
2022/12/31 07:33:21;;;;;;;12.27;7.90;;;9.70;99.90;;;;;;5054481;28;20071;-60
2022/12/31 07:36:11;;;;;;;20.83;12.93;;;9.70;99.90;;;;;;5054797;28;20044;-60
2022/12/31 07:39:00;;;;;;;24.83;16.30;;;9.60;99.90;;;;;;5045456;28;20041;-61
2022/12/31 07:41:29;;;;;;;20.90;14.30;;;9.70;99.90;;;;;;5064464;28;20052;-61
2022/12/31 07:44:05;;;;;;;19.58;13.45;;;9.70;99.90;;;;;;5054680;28;20041;-61
2022/12/31 07:46:56;;;;;;;15.52;10.40;;;9.80;99.90;;;;;;5068260;28;20400;-61
2022/12/31 07:49:24;;;;;;;10.98;7.03;;;9.80;99.90;;;;;;5058212;28;20063;-61
2022/12/31 07:51:50;;;;;;;10.52;6.38;;;9.80;99.90;;;;;;5062433;28;20051;-60
2022/12/31 07:54:16;;;;;;;11.75;7.60;;;9.80;99.90;;;;;;5054196;28;20124;-61
2022/12/31 07:56:42;;;;;;;13.60;7.78;;;9.80;99.90;;;;;;5071838;28;20485;-60
2022/12/31 07:59:16;;;;;;;12.10;7.93;;;9.90;99.90;;;;;;5035014;28;20044;-60
2022/12/31 08:01:50;;;;;;;12.43;8.57;;;9.90;99.90;;;;;;5052320;28;20485;-60
2022/12/31 08:04:28;;;;;;;8.90;6.53;;;9.90;99.90;;;;;;5052361;28;20040;-61
2022/12/31 08:07:12;;;;;;;7.53;5.47;;;9.90;99.90;;;;;;5069145;28;20056;-61
2022/12/31 08:10:01;;;;;;;10.45;5.75;;;9.90;99.90;;;;;;5070090;28;20407;-61
2022/12/31 08:12:32;;;;;;;13.07;9.25;;;9.90;99.90;;;;;;5068029;28;20052;-61
2022/12/31 08:14:58;;;;;;;9.60;7.63;;;10.00;99.90;;;;;;5069532;28;20040;-61
2022/12/31 08:17:23;;;;;;;10.82;7.10;;;10.00;99.90;;;;;;5066925;28;20055;-61
2022/12/31 08:19:49;;;;;;;11.35;8.25;;;10.00;99.90;;;;;;5067981;28;20040;-61
2022/12/31 08:22:26;;;;;;;9.02;7.00;;;10.00;99.90;;;;;;5069911;28;20669;-61
2022/12/31 08:25:26;;;;;;;9.77;6.25;;;10.10;99.90;;;;;;5052233;28;20045;-61
2022/12/31 08:28:20;;;;;;;10.38;8.23;;;10.10;99.90;;;;;;5059215;28;20047;-61
2022/12/31 08:31:16;;;;;;;10.00;6.13;;;10.10;99.90;;;;;;5058648;28;20558;-61
2022/12/31 08:33:59;;;;;;;10.82;7.72;;;10.20;99.90;;;;;;5040846;28;20169;-61
2022/12/31 08:36:47;;;;;;;9.30;6.68;;;10.20;99.90;;;;;;5032783;28;20048;-61
2022/12/31 08:39:19;;;;;;;8.68;6.40;;;10.30;99.90;;;;;;5067648;28;20036;-61
2022/12/31 08:41:48;;;;;;;9.90;6.70;;;10.40;99.90;;;;;;5067950;28;20485;-61
2022/12/31 08:44:43;;;;;;;16.55;14.23;;;10.40;99.90;;;;;;5068034;28;20035;-61
2022/12/31 08:47:34;;;;;;;11.52;8.68;;;10.50;99.90;;;;;;5068409;28;20464;-61
2022/12/31 08:50:00;;;;;;;11.82;7.97;;;10.60;99.90;;;;;;5049930;28;20123;-61
2022/12/31 08:52:26;;;;;;;8.88;6.55;;;10.60;99.90;;;;;;5034619;28;20127;-61
2022/12/31 08:54:52;;;;;;;8.48;6.07;;;10.70;99.90;;;;;;5067743;28;20048;-61
2022/12/31 08:57:34;;;;;;;8.48;6.00;;;10.80;99.90;;;;;;5050505;28;20107;-61
2022/12/31 09:00:10;;;;;;;10.55;6.70;;;10.90;99.90;;;;;;5067968;28;20492;-61
2022/12/31 09:02:58;;;;;;;10.35;6.53;;;11.00;99.90;;;;;;5033456;28;20424;-61
2022/12/31 09:05:58;;;;;;;11.07;6.88;;;11.10;99.90;;;;;;5049900;28;20110;-61
2022/12/31 09:09:01;;;;;;;10.70;6.35;;;11.20;99.90;;;;;;5055477;28;20048;-61
2022/12/31 09:12:18;;;;;;;11.20;6.20;;;11.20;99.90;;;;;;5037989;28;20040;-61
2022/12/31 09:14:53;;;;;;;7.90;5.22;;;11.30;99.90;;;;;;5000251;28;20127;-61
2022/12/31 09:17:43;;;;;;;9.05;4.85;;;11.40;99.90;;;;;;5052132;28;20492;-62
2022/12/31 09:20:15;;;;;;;7.70;3.92;;;11.40;99.90;;;;;;5054263;28;20872;-61
2022/12/31 09:22:41;;;;;;;12.50;5.10;;;11.40;99.90;;;;;;5054094;28;20472;-62
2022/12/31 09:25:16;;;;;;;10.63;4.10;;;11.50;99.90;;;;;;5052345;28;20036;-61
2022/12/31 09:28:07;;;;;;;9.10;4.32;;;11.60;99.90;;;;;;5061359;28;20044;-61
2022/12/31 09:30:49;;;;;;;8.77;3.70;;;11.60;99.90;;;;;;5070552;28;20049;-61
2022/12/31 09:33:31;;;;;;;11.57;3.65;;;11.60;99.90;;;;;;5037784;28;20101;-61
2022/12/31 09:36:02;;;;;;;9.05;2.80;;;11.60;99.90;;;;;;5071993;28;20041;-61
2022/12/31 09:38:56;;;;;;;8.55;2.60;;;11.70;99.90;;;;;;5053283;28;20048;-62
2022/12/31 09:41:47;;;;;;;7.82;2.67;;;11.60;99.90;;;;;;5015583;28;20065;-61
2022/12/31 09:44:13;;;;;;;7.57;2.42;;;11.60;99.90;;;;;;5070743;28;20509;-61
2022/12/31 09:46:54;;;;;;;8.43;2.92;;;11.60;99.90;;;;;;5071915;28;20051;-62
2022/12/31 09:49:36;;;;;;;10.25;3.10;;;11.70;99.90;;;;;;5072084;28;20044;-62
2022/12/31 09:52:24;;;;;;;6.95;2.45;;;11.70;99.90;;;;;;5053240;28;20044;-61
2022/12/31 09:55:32;;;;;;;7.72;2.22;;;11.70;99.90;;;;;;5053941;28;20032;-61
2022/12/31 09:58:07;;;;;;;5.90;2.05;;;11.80;99.90;;;;;;5037477;28;20048;-61
2022/12/31 10:00:43;;;;;;;9.82;3.55;;;11.80;99.90;;;;;;5053812;28;20040;-61
2022/12/31 10:03:57;;;;;;;10.63;5.05;;;11.80;99.90;;;;;;5070916;28;20064;-62
2022/12/31 10:06:26;;;;;;;10.80;2.63;;;11.80;99.90;;;;;;5036425;28;20052;-61
2022/12/31 10:08:55;;;;;;;10.82;2.85;;;11.80;99.90;;;;;;5053923;28;20513;-61
2022/12/31 10:11:27;;;;;;;8.93;3.30;;;11.80;99.90;;;;;;5052918;28;20048;-61
2022/12/31 10:14:13;;;;;;;9.88;2.72;;;11.90;99.90;;;;;;5051092;28;20512;-62
2022/12/31 10:16:59;;;;;;;7.95;2.25;;;11.90;99.90;;;;;;5039526;28;20058;-61
2022/12/31 10:19:49;;;;;;;8.85;2.40;;;11.90;99.90;;;;;;5052632;28;20150;-61
2022/12/31 10:22:29;;;;;;;9.90;2.10;;;12.00;99.90;;;;;;5053438;28;20044;-61
2022/12/31 10:25:23;;;;;;;9.88;2.55;;;12.10;99.90;;;;;;5072069;28;20633;-62
2022/12/31 10:28:24;;;;;;;11.98;3.40;;;12.10;99.90;;;;;;5042323;28;20047;-61
2022/12/31 10:31:28;;;;;;;11.88;2.63;;;12.20;99.90;;;;;;5014544;28;20051;-61
2022/12/31 10:34:00;;;;;;;12.15;2.88;;;12.30;99.90;;;;;;5017234;28;20059;-61
2022/12/31 10:36:49;;;;;;;17.73;4.07;;;12.40;99.90;;;;;;5068739;28;20469;-61
2022/12/31 10:39:31;;;;;;;16.75;3.83;;;12.40;99.90;;;;;;5071175;28;20128;-61
2022/12/31 10:42:33;;;;;;;12.05;3.67;;;12.40;99.90;;;;;;5058841;28;20040;-61
2022/12/31 10:45:22;;;;;;;13.88;3.20;;;12.60;99.90;;;;;;5067249;28;20028;-62
2022/12/31 10:48:06;;;;;;;13.45;2.90;;;12.60;99.90;;;;;;5059418;28;20033;-62
2022/12/31 10:50:51;;;;;;;16.85;3.72;;;12.60;99.90;;;;;;5073875;28;20378;-61
2022/12/31 10:53:54;;;;;;;19.48;3.35;;;12.70;99.90;;;;;;5055646;28;20132;-63
2022/12/31 10:56:57;;;;;;;19.77;3.35;;;12.70;99.90;;;;;;5055011;28;20577;-60
2022/12/31 10:59:44;;;;;;;12.80;3.67;;;12.80;99.90;;;;;;5037509;28;20048;-60
2022/12/31 11:02:37;;;;;;;11.35;3.35;;;12.90;99.90;;;;;;5058616;28;20039;-62
2022/12/31 11:05:06;;;;;;;15.35;3.30;;;12.90;99.90;;;;;;5038271;28;20515;-62
2022/12/31 11:07:47;;;;;;;14.40;4.10;;;12.90;99.90;;;;;;5065620;28;20059;-62
2022/12/31 11:10:31;;;;;;;11.65;3.88;;;12.90;99.90;;;;;;5035278;28;20402;-63
2022/12/31 11:13:14;;;;;;;12.70;4.53;;;12.90;99.90;;;;;;5070485;28;20072;-63
2022/12/31 11:15:55;;;;;;;9.93;3.50;;;12.90;99.90;;;;;;5060632;28;20064;-62
2022/12/31 11:18:32;;;;;;;15.02;3.92;;;12.90;99.90;;;;;;5057242;28;20072;-62
2022/12/31 11:21:10;;;;;;;19.45;4.57;;;12.80;99.90;;;;;;5058892;28;20051;-62
2022/12/31 11:23:41;;;;;;;16.45;4.03;;;12.80;99.90;;;;;;5072210;28;20115;-63
2022/12/31 11:26:48;;;;;;;18.05;4.50;;;12.90;99.90;;;;;;5072367;28;20094;-64
2022/12/31 11:29:27;;;;;;;14.63;4.28;;;12.80;99.90;;;;;;5075181;28;20490;-62
2022/12/31 11:31:53;;;;;;;13.40;2.90;;;12.80;99.90;;;;;;5043161;28;20032;-62
2022/12/31 11:34:35;;;;;;;17.42;4.50;;;12.80;99.90;;;;;;5063056;28;20169;-63
2022/12/31 11:37:39;;;;;;;17.05;4.38;;;12.90;99.90;;;;;;5053781;28;20067;-63
2022/12/31 11:40:35;;;;;;;28.10;5.07;;;12.90;99.90;;;;;;5054597;28;20037;-63
2022/12/31 11:43:20;;;;;;;;;;;13.00;99.90;;;;;;5072568;28;20032;-62
2022/12/31 11:46:04;;;;;;;12.32;2.97;;;12.90;99.90;;;;;;5056930;28;19916;-62
2022/12/31 11:48:49;;;;;;;16.98;3.72;;;13.00;99.90;;;;;;5035199;28;20139;-62
2022/12/31 11:51:27;;;;;;;14.13;3.83;;;12.90;99.90;;;;;;5059748;28;20093;-62
2022/12/31 11:53:56;;;;;;;13.10;3.83;;;13.00;99.90;;;;;;5053984;28;20045;-61
2022/12/31 11:56:32;;;;;;;18.83;3.60;;;13.00;99.90;;;;;;5051639;28;20072;-61
2022/12/31 11:58:59;;;;;;;11.13;3.40;;;13.10;99.90;;;;;;5065846;28;20051;-61
2022/12/31 12:01:42;;;;;;;11.20;3.35;;;13.10;99.90;;;;;;5058985;28;20044;-62
2022/12/31 12:04:09;;;;;;;12.65;3.40;;;13.10;99.90;;;;;;5050856;28;20040;-62
2022/12/31 12:06:36;;;;;;;9.88;3.35;;;13.10;99.90;;;;;;5050507;28;20086;-61
2022/12/31 12:09:06;;;;;;;13.68;3.17;;;13.10;99.90;;;;;;5034639;28;20044;-61
2022/12/31 12:11:36;;;;;;;9.52;3.78;;;13.20;99.90;;;;;;5069314;28;20602;-61
2022/12/31 12:14:21;;;;;;;14.85;3.53;;;13.20;99.90;;;;;;5050963;28;20348;-61
2022/12/31 12:16:53;;;;;;;13.68;4.38;;;13.10;99.90;;;;;;5052947;28;20044;-61
2022/12/31 12:19:22;;;;;;;14.05;3.42;;;13.10;99.90;;;;;;5068515;28;20050;-62
2022/12/31 12:21:48;;;;;;;10.63;3.15;;;13.10;99.90;;;;;;5069014;28;20586;-61
2022/12/31 12:24:26;;;;;;;20.25;7.90;;;13.10;99.90;;;;;;5069000;28;20086;-62
2022/12/31 12:26:52;;;;;;;13.57;5.72;;;13.10;99.90;;;;;;5050950;28;20044;-62
2022/12/31 12:29:25;;;;;;;13.27;3.92;;;13.00;99.90;;;;;;5069294;28;20033;-61
2022/12/31 12:32:15;;;;;;;25.05;4.90;;;13.00;99.90;;;;;;5068514;28;20040;-62
2022/12/31 12:34:41;;;;;;;24.58;10.25;;;13.00;99.90;;;;;;5041576;28;20132;-62
2022/12/31 12:37:23;;;;;;;15.02;4.47;;;13.00;99.90;;;;;;5051426;28;20677;-61
2022/12/31 12:40:20;;;;;;;47.60;21.55;;;13.00;99.90;;;;;;5055284;28;20055;-61
2022/12/31 12:42:51;;;;;;;61.47;30.88;;;13.00;99.90;;;;;;5050722;28;20060;-62
2022/12/31 12:45:22;;;;;;;19.67;6.18;;;12.90;99.90;;;;;;5068052;28;20059;-62
2022/12/31 12:47:54;;;;;;;19.85;8.05;;;12.90;99.90;;;;;;5068091;28;20494;-62
2022/12/31 12:50:24;;;;;;;20.33;4.80;;;12.90;99.90;;;;;;5037248;28;20381;-62
2022/12/31 12:52:58;;;;;;;12.13;5.57;;;12.80;99.90;;;;;;5068458;28;20045;-62
2022/12/31 12:55:32;;;;;;;16.45;4.18;;;12.80;99.90;;;;;;5063825;28;20101;-61
2022/12/31 12:58:19;;;;;;;13.60;4.78;;;12.90;99.90;;;;;;5051360;28;20048;-62
2022/12/31 13:01:12;;;;;;;14.98;4.45;;;12.90;99.90;;;;;;5062448;28;20370;-61
2022/12/31 13:03:57;;;;;;;12.88;4.78;;;12.80;99.90;;;;;;5069042;28;20109;-60
2022/12/31 13:06:41;;;;;;;15.30;4.43;;;12.80;99.90;;;;;;5050596;28;20088;-60
2022/12/31 13:09:29;;;;;;;13.80;4.40;;;12.80;99.90;;;;;;5050009;28;20040;-60
2022/12/31 13:12:10;;;;;;;15.75;4.88;;;12.70;99.90;;;;;;5069091;28;20040;-60
2022/12/31 13:15:14;;;;;;;16.38;4.05;;;12.70;99.90;;;;;;5051472;28;20080;-60
2022/12/31 13:18:07;;;;;;;13.68;3.80;;;12.70;99.90;;;;;;5051778;28;20087;-60
2022/12/31 13:20:48;;;;;;;20.42;5.00;;;12.80;99.90;;;;;;5069047;28;20076;-60
2022/12/31 13:23:45;;;;;;;18.27;5.25;;;12.80;99.90;;;;;;5050589;28;20102;-60
2022/12/31 13:26:20;;;;;;;15.63;4.03;;;12.80;99.90;;;;;;5069266;28;20055;-60
2022/12/31 13:28:49;;;;;;;14.10;3.63;;;12.80;99.90;;;;;;5067758;28;20048;-60
2022/12/31 13:31:21;;;;;;;12.05;3.90;;;12.80;99.90;;;;;;5068031;28;20052;-60
2022/12/31 13:34:03;;;;;;;15.35;3.85;;;12.80;99.90;;;;;;5069181;28;20115;-60
2022/12/31 13:36:31;;;;;;;10.80;3.67;;;12.70;99.90;;;;;;5068162;28;20109;-60